createdAt,value
2023-01-09T00:00:00.462Z,18
2023-01-09T00:04:00.540Z,16
2023-01-09T00:08:00.508Z,17
2023-01-09T00:12:00.483Z,14
2023-01-09T00:16:00.521Z,14
2023-01-09T00:20:00.476Z,20
2023-01-09T00:24:00.492Z,17
2023-01-09T00:28:00.505Z,19
2023-01-09T00:32:00.539Z,18
2023-01-09T00:36:00.486Z,15
2023-01-09T00:40:00.501Z,25
2023-01-09T00:44:00.464Z,20
2023-01-09T00:48:00.469Z,18
2023-01-09T00:52:00.505Z,16
2023-01-09T00:56:00.503Z,22
2023-01-09T01:00:00.498Z,20
2023-01-09T01:04:00.486Z,16
2023-01-09T01:08:00.481Z,19
2023-01-09T01:12:00.471Z,20
2023-01-09T01:16:00.493Z,22
2023-01-09T01:20:00.499Z,20
2023-01-09T01:24:00.476Z,15
2023-01-09T01:28:00.498Z,16
2023-01-09T01:32:00.488Z,15
2023-01-09T01:36:00.500Z,15
2023-01-09T01:40:00.474Z,22
2023-01-09T01:44:00.488Z,21
2023-01-09T01:48:00.484Z,15
2023-01-09T01:52:00.511Z,20
2023-01-09T01:56:00.481Z,18
2023-01-09T02:00:00.491Z,16
2023-01-09T02:04:00.525Z,16
2023-01-09T02:08:00.492Z,19
2023-01-09T02:12:00.511Z,18
2023-01-09T02:16:00.531Z,19
2023-01-09T02:20:00.497Z,17
2023-01-09T02:24:00.481Z,18
2023-01-09T02:28:00.481Z,22
2023-01-09T02:32:00.488Z,19
2023-01-09T02:36:00.472Z,26
2023-01-09T02:40:00.477Z,18
2023-01-09T02:44:00.477Z,18
2023-01-09T02:48:00.457Z,17
2023-01-09T02:52:00.499Z,16
2023-01-09T02:56:00.511Z,23
2023-01-09T03:00:00.478Z,24
2023-01-09T03:04:00.491Z,24
2023-01-09T03:08:00.486Z,22
2023-01-09T03:12:00.528Z,20
2023-01-09T03:16:00.497Z,20
2023-01-09T03:20:00.471Z,20
2023-01-09T03:24:00.474Z,18
2023-01-09T03:28:00.479Z,19
2023-01-09T03:32:00.466Z,22
2023-01-09T03:36:00.464Z,19
2023-01-09T03:40:00.473Z,19
2023-01-09T03:44:00.493Z,23
2023-01-09T03:48:00.471Z,22
2023-01-09T03:52:00.480Z,22
2023-01-09T03:56:00.475Z,19
2023-01-09T04:00:00.503Z,18
2023-01-09T04:04:00.566Z,24
2023-01-09T04:08:00.491Z,16
2023-01-09T04:12:00.503Z,23
2023-01-09T04:16:00.633Z,23
2023-01-09T04:20:00.514Z,20
2023-01-09T04:24:00.476Z,22
2023-01-09T04:28:00.496Z,19
2023-01-09T04:32:00.505Z,17
2023-01-09T04:36:00.461Z,28
2023-01-09T04:40:00.515Z,17
2023-01-09T04:44:00.486Z,22
2023-01-09T04:48:00.504Z,21
2023-01-09T04:52:00.520Z,20
2023-01-09T04:56:00.498Z,24
2023-01-09T05:00:00.487Z,20
2023-01-09T05:04:00.529Z,22
2023-01-09T05:08:00.486Z,20
2023-01-09T05:12:01.784Z,24
2023-01-09T05:16:00.480Z,27
2023-01-09T05:20:00.471Z,22
2023-01-09T05:24:00.477Z,23
2023-01-09T05:28:00.485Z,26
2023-01-09T05:32:00.499Z,23
2023-01-09T05:36:00.506Z,18
2023-01-09T05:40:00.494Z,20
2023-01-09T05:44:00.498Z,20
2023-01-09T05:48:00.496Z,19
2023-01-09T05:52:00.497Z,18
2023-01-09T05:56:00.497Z,18
2023-01-09T06:00:00.482Z,18
2023-01-09T06:04:00.469Z,21
2023-01-09T06:08:00.474Z,24
2023-01-09T06:12:00.500Z,15
2023-01-09T06:16:00.515Z,23
2023-01-09T06:20:00.502Z,21
2023-01-09T06:24:00.497Z,20
2023-01-09T06:28:00.507Z,25
2023-01-09T06:32:00.484Z,20
2023-01-09T06:36:00.497Z,18
2023-01-09T06:40:00.482Z,20
2023-01-09T06:44:00.508Z,22
2023-01-09T06:48:00.504Z,21
2023-01-09T06:52:00.491Z,23
2023-01-09T06:56:00.474Z,17
2023-01-09T07:00:00.492Z,21
2023-01-09T07:04:00.549Z,18
2023-01-09T07:08:00.492Z,27
2023-01-09T07:12:00.505Z,18
2023-01-09T07:16:00.515Z,21
2023-01-09T07:20:00.464Z,21
2023-01-09T07:24:00.486Z,22
2023-01-09T07:28:00.480Z,19
2023-01-09T07:32:00.488Z,16
2023-01-09T07:36:00.485Z,19
2023-01-09T07:40:00.496Z,22
2023-01-09T07:44:00.486Z,18
2023-01-09T07:48:00.509Z,19
2023-01-09T07:52:00.489Z,18
2023-01-09T07:56:00.476Z,20
2023-01-09T08:00:00.454Z,22
2023-01-09T08:04:00.501Z,19
2023-01-09T08:08:00.467Z,18
2023-01-09T08:12:00.492Z,20
2023-01-09T08:16:00.561Z,16
2023-01-09T08:20:00.493Z,19
2023-01-09T08:24:00.486Z,18
2023-01-09T08:28:00.504Z,23
2023-01-09T08:32:00.468Z,20
2023-01-09T08:36:00.514Z,24
2023-01-09T08:40:00.511Z,21
2023-01-09T08:44:00.486Z,21
2023-01-09T08:48:01.291Z,20
2023-01-09T08:52:00.491Z,19
2023-01-09T08:56:00.477Z,17
2023-01-09T09:00:00.466Z,21
2023-01-09T09:04:00.485Z,20
2023-01-09T09:08:00.506Z,17
2023-01-09T09:12:00.484Z,20
2023-01-09T09:16:00.562Z,23
2023-01-09T09:20:00.490Z,18
2023-01-09T09:24:00.513Z,14
2023-01-09T09:28:00.520Z,27
2023-01-09T09:32:01.065Z,22
2023-01-09T09:36:00.483Z,23
2023-01-09T09:40:09.847Z,21
2023-01-09T09:44:00.492Z,25
2023-01-09T09:48:00.491Z,15
2023-01-09T09:52:00.497Z,24
2023-01-09T09:56:00.475Z,24
2023-01-09T10:00:00.475Z,17
2023-01-09T10:04:00.623Z,23
2023-01-09T10:08:11.580Z,18
2023-01-09T10:12:00.492Z,18
2023-01-09T10:16:00.529Z,21
2023-01-09T10:20:00.491Z,19
2023-01-09T10:24:00.479Z,19
2023-01-09T10:28:00.488Z,22
2023-01-09T10:32:00.494Z,17
2023-01-09T10:36:00.480Z,14
2023-01-09T10:40:00.470Z,13
2023-01-09T10:44:00.512Z,11
2023-01-09T10:48:00.485Z,11
2023-01-09T10:52:00.484Z,15
2023-01-09T10:56:00.486Z,12
2023-01-09T11:00:00.504Z,11
2023-01-09T11:04:00.472Z,7
2023-01-09T11:08:00.512Z,8
2023-01-09T11:12:00.489Z,12
2023-01-09T11:16:00.571Z,12
2023-01-09T11:20:00.491Z,6
2023-01-09T11:24:00.517Z,6
2023-01-09T11:28:00.495Z,8
2023-01-09T11:32:00.508Z,10
2023-01-09T11:36:00.510Z,7
2023-01-09T11:40:00.565Z,7
2023-01-09T11:44:00.499Z,7
2023-01-09T11:48:00.504Z,8
2023-01-09T11:52:00.521Z,3
2023-01-09T11:56:00.492Z,5
2023-01-09T12:00:00.504Z,5
2023-01-09T12:04:00.489Z,5
2023-01-09T12:08:00.480Z,5
2023-01-09T12:12:00.485Z,7
2023-01-09T12:16:00.552Z,5
2023-01-09T12:20:00.480Z,4
2023-01-09T12:24:00.509Z,7
2023-01-09T12:28:00.493Z,3
2023-01-09T12:32:00.547Z,2
2023-01-09T12:36:00.480Z,7
2023-01-09T12:40:00.483Z,4
2023-01-09T12:44:00.487Z,2
2023-01-09T12:48:00.512Z,4
2023-01-09T12:52:00.499Z,4
2023-01-09T12:56:00.492Z,3
2023-01-09T13:00:00.489Z,4
2023-01-09T13:04:00.491Z,1
2023-01-09T13:08:00.480Z,4
2023-01-09T13:12:00.474Z,3
2023-01-09T13:16:00.598Z,2
2023-01-09T13:20:00.497Z,3
2023-01-09T13:24:00.511Z,3
2023-01-09T13:28:00.499Z,1
2023-01-09T13:32:00.570Z,3
2023-01-09T13:36:00.492Z,2
2023-01-09T13:40:00.492Z,3
2023-01-09T13:44:00.507Z,3
2023-01-09T13:48:00.491Z,2
2023-01-09T13:52:00.497Z,1
2023-01-09T13:56:00.486Z,1
2023-01-09T14:00:00.505Z,1
2023-01-09T14:04:00.470Z,1
2023-01-09T14:08:00.497Z,1
2023-01-09T14:12:00.488Z,3
2023-01-09T14:16:00.486Z,1
2023-01-09T14:20:00.476Z,1
2023-01-09T14:24:04.370Z,4
2023-01-09T14:28:00.487Z,0
2023-01-09T14:32:00.567Z,1
2023-01-09T14:36:00.466Z,1
2023-01-09T14:40:00.487Z,2
2023-01-09T14:44:00.500Z,0
2023-01-09T14:48:00.471Z,3
2023-01-09T14:52:00.496Z,3
2023-01-09T14:56:00.539Z,1
2023-01-09T15:00:00.488Z,2
2023-01-09T15:04:00.463Z,4
2023-01-09T15:08:00.477Z,4
2023-01-09T15:12:00.472Z,5
2023-01-09T15:16:00.465Z,5
2023-01-09T15:20:00.497Z,5
2023-01-09T15:24:00.497Z,7
2023-01-09T15:28:00.472Z,7
2023-01-09T15:32:00.625Z,15
2023-01-09T15:36:00.502Z,17
2023-01-09T15:40:00.507Z,11
2023-01-09T15:44:00.493Z,8
2023-01-09T15:48:00.510Z,7
2023-01-09T15:52:00.489Z,10
2023-01-09T15:56:00.505Z,4
2023-01-09T16:00:00.468Z,6
2023-01-09T16:04:00.495Z,11
2023-01-09T16:08:00.468Z,9
2023-01-09T16:12:00.505Z,13
2023-01-09T16:16:00.502Z,12
2023-01-09T16:20:00.496Z,10
2023-01-09T16:24:00.488Z,11
2023-01-09T16:28:00.489Z,10
2023-01-09T16:32:00.586Z,9
2023-01-09T16:36:00.492Z,8
2023-01-09T16:40:00.482Z,8
2023-01-09T16:44:00.500Z,7
2023-01-09T16:48:00.476Z,7
2023-01-09T16:52:00.497Z,6
2023-01-09T16:56:00.475Z,5
2023-01-09T17:00:00.484Z,4
2023-01-09T17:04:00.505Z,4
2023-01-09T17:08:00.469Z,2
2023-01-09T17:12:00.510Z,9
2023-01-09T17:16:00.520Z,8
2023-01-09T17:20:00.501Z,3
2023-01-09T17:24:00.460Z,6
2023-01-09T17:28:00.502Z,2
2023-01-09T17:32:00.587Z,2
2023-01-09T17:36:00.490Z,1
2023-01-09T17:40:00.481Z,1
2023-01-09T17:44:00.519Z,0
2023-01-09T17:48:00.490Z,1
2023-01-09T17:52:00.755Z,3
2023-01-09T17:56:00.490Z,6
2023-01-09T18:00:00.499Z,4
2023-01-09T18:04:00.486Z,4
2023-01-09T18:08:00.486Z,3
2023-01-09T18:12:00.484Z,2
2023-01-09T18:16:00.544Z,4
2023-01-09T18:20:00.465Z,1
2023-01-09T18:24:00.494Z,1
2023-01-09T18:28:00.494Z,1
2023-01-09T18:32:00.561Z,4
2023-01-09T18:36:00.475Z,9
2023-01-09T18:40:00.612Z,6
2023-01-09T18:44:00.497Z,3
2023-01-09T18:48:00.475Z,7
2023-01-09T18:52:00.506Z,4
2023-01-09T18:56:00.452Z,4
2023-01-09T19:00:00.506Z,2
2023-01-09T19:04:00.554Z,2
2023-01-09T19:08:00.514Z,4
2023-01-09T19:12:00.536Z,1
2023-01-09T19:16:00.539Z,1
2023-01-09T19:20:00.476Z,18
2023-01-09T19:24:00.498Z,10
2023-01-09T19:28:00.492Z,21
2023-01-09T19:32:00.608Z,25
2023-01-09T19:36:00.564Z,29
2023-01-09T19:40:00.515Z,9
2023-01-09T19:44:00.480Z,17
2023-01-09T19:48:00.491Z,16
2023-01-09T19:52:00.478Z,21
2023-01-09T19:56:00.484Z,25
2023-01-09T20:00:00.497Z,21
2023-01-09T20:04:00.482Z,25
2023-01-09T20:08:00.500Z,17
2023-01-09T20:12:00.487Z,8
2023-01-09T20:16:00.541Z,10
2023-01-09T20:20:00.511Z,5
2023-01-09T20:24:00.473Z,7
2023-01-09T20:28:00.500Z,2
2023-01-09T20:32:00.501Z,6
2023-01-09T20:36:00.466Z,1
2023-01-09T20:40:00.517Z,3
2023-01-09T20:44:00.491Z,2
2023-01-09T20:48:00.511Z,1
2023-01-09T20:52:00.495Z,2
2023-01-09T20:56:00.485Z,1
2023-01-09T21:00:00.505Z,0
2023-01-09T21:04:00.572Z,0
2023-01-09T21:08:00.503Z,1
2023-01-09T21:12:00.496Z,0
2023-01-09T21:16:00.483Z,0
2023-01-09T21:20:00.499Z,1
2023-01-09T21:24:00.650Z,2
2023-01-09T21:28:00.526Z,4
2023-01-09T21:32:00.580Z,1
2023-01-09T21:36:00.511Z,2
2023-01-09T21:40:00.510Z,3
2023-01-09T21:44:00.489Z,1
2023-01-09T21:48:00.468Z,2
2023-01-09T21:52:00.501Z,1
2023-01-09T21:56:00.481Z,1
2023-01-09T22:00:00.475Z,2
2023-01-09T22:04:00.535Z,2
2023-01-09T22:08:00.509Z,1
2023-01-09T22:12:00.504Z,2
2023-01-09T22:16:00.573Z,3
2023-01-09T22:20:00.498Z,3
2023-01-09T22:24:00.477Z,3
2023-01-09T22:28:00.451Z,3
2023-01-09T22:32:00.606Z,2
2023-01-09T22:36:00.473Z,2
2023-01-09T22:40:00.480Z,2
2023-01-09T22:44:00.491Z,3
2023-01-09T22:48:00.460Z,1
2023-01-09T22:52:00.463Z,1
2023-01-09T22:56:00.483Z,2
2023-01-09T23:00:00.490Z,4
2023-01-09T23:04:00.500Z,1
2023-01-09T23:08:00.521Z,1
2023-01-09T23:12:00.471Z,1
2023-01-09T23:16:00.485Z,1
2023-01-09T23:20:00.514Z,1
2023-01-09T23:24:00.492Z,3
2023-01-09T23:28:00.507Z,1
2023-01-09T23:32:00.539Z,2
2023-01-09T23:36:00.487Z,3
2023-01-09T23:40:00.465Z,4
2023-01-09T23:44:00.490Z,2
2023-01-09T23:48:00.526Z,2
2023-01-09T23:52:00.468Z,1
2023-01-09T23:56:00.497Z,2
